createdAt,value
2023-03-23T15:58:35.797Z,5.90
2023-03-23T16:01:11.789Z,3.78
2023-03-23T16:03:52.125Z,6.00
2023-03-23T16:06:23.504Z,5.80
2023-03-23T16:08:56.424Z,5.88
2023-03-23T16:11:25.394Z,3.60
2023-03-23T16:13:52.660Z,4.95
2023-03-23T16:16:23.334Z,4.93
2023-03-23T16:18:50.216Z,1.95
2023-03-23T16:21:18.371Z,4.30
2023-03-23T16:23:46.374Z,4.53
2023-03-23T16:26:14.826Z,3.93
2023-03-23T16:28:42.873Z,2.70
2023-03-23T16:31:09.914Z,5.18
2023-03-23T16:33:36.922Z,3.73
2023-03-23T16:36:04.434Z,4.70
2023-03-23T16:38:31.262Z,3.97
2023-03-23T16:40:57.944Z,3.13
2023-03-23T16:43:24.496Z,2.87
2023-03-23T16:45:55.932Z,4.35
2023-03-23T16:48:22.922Z,3.35
2023-03-23T16:50:51.580Z,3.92
2023-03-23T16:53:18.909Z,3.85
2023-03-23T16:55:48.350Z,2.97
2023-03-23T16:58:17.498Z,2.88
2023-03-23T17:00:47.631Z,3.75
2023-03-23T17:03:16.272Z,4.50
2023-03-23T17:05:43.485Z,3.20
2023-03-23T17:08:10.649Z,5.55
2023-03-23T17:10:39.760Z,3.13
2023-03-23T17:13:06.576Z,3.93
2023-03-23T17:15:35.618Z,3.90
2023-03-23T17:18:02.247Z,3.23
2023-03-23T17:20:28.862Z,3.50
2023-03-23T17:22:55.413Z,3.07
2023-03-23T17:25:21.948Z,3.67
2023-03-23T17:27:48.558Z,3.83
2023-03-23T17:30:15.254Z,3.13
2023-03-23T17:32:41.823Z,5.50
2023-03-23T17:35:08.758Z,4.87
2023-03-23T17:37:37.702Z,3.47
2023-03-23T17:40:08.288Z,3.60
2023-03-23T17:42:34.884Z,5.47
2023-03-23T17:45:01.516Z,9.10
2023-03-23T17:47:28.093Z,5.30
2023-03-23T17:49:54.737Z,6.30
2023-03-23T17:52:21.485Z,3.93
2023-03-23T17:54:48.183Z,6.80
2023-03-23T17:57:14.906Z,4.00
2023-03-23T17:59:41.591Z,4.40
2023-03-23T18:02:08.665Z,3.90
2023-03-23T18:04:35.347Z,6.00
2023-03-23T18:07:01.968Z,6.80
2023-03-23T18:09:28.753Z,5.00
2023-03-23T18:11:56.590Z,4.47
2023-03-23T18:14:23.399Z,8.53
2023-03-23T18:16:50.178Z,5.43
2023-03-23T18:19:17.405Z,4.23
2023-03-23T18:21:45.864Z,4.10
2023-03-23T18:24:13.238Z,6.13
2023-03-23T18:26:41.989Z,5.70
2023-03-23T18:29:08.638Z,7.27
2023-03-23T18:31:39.915Z,5.07
2023-03-23T18:34:07.236Z,6.30
2023-03-23T18:36:34.355Z,9.93
2023-03-23T18:39:01.134Z,4.20
2023-03-23T18:41:27.874Z,5.53
2023-03-23T18:43:56.277Z,6.83
2023-03-23T18:46:24.167Z,7.33
2023-03-23T18:48:51.070Z,6.67
2023-03-23T18:51:17.917Z,6.37
2023-03-23T18:53:44.473Z,5.40
2023-03-23T18:56:15.809Z,5.03
2023-03-23T18:58:43.453Z,6.10
2023-03-23T19:01:12.870Z,5.77
2023-03-23T19:03:40.432Z,4.67
2023-03-23T19:06:14.162Z,4.00
2023-03-23T19:08:40.895Z,5.03
2023-03-23T19:11:12.365Z,6.10
2023-03-23T19:13:44.447Z,6.60
2023-03-23T19:16:17.447Z,4.57
2023-03-23T19:18:44.148Z,4.40
2023-03-23T19:21:15.604Z,4.53
2023-03-23T19:23:44.717Z,5.90
2023-03-23T19:26:22.407Z,6.67
2023-03-23T19:31:21.570Z,6.03
2023-03-23T19:33:49.233Z,6.07
2023-03-23T19:36:16.840Z,4.97
2023-03-23T19:38:43.531Z,5.17
2023-03-23T19:41:11.101Z,5.37
2023-03-23T19:43:39.253Z,7.30
2023-03-23T19:46:06.249Z,5.73
2023-03-23T19:48:33.163Z,5.73
2023-03-23T19:50:59.792Z,5.57
2023-03-23T19:53:27.115Z,5.00
2023-03-23T19:55:53.714Z,5.63
2023-03-23T19:58:21.052Z,5.60
2023-03-23T20:00:48.641Z,6.50
2023-03-23T20:03:16.017Z,4.50
2023-03-23T20:05:43.392Z,5.03
2023-03-23T20:08:10.478Z,5.80
2023-03-23T20:10:38.262Z,4.97
2023-03-23T20:13:05.346Z,7.43
2023-03-23T20:15:32.699Z,6.43
2023-03-23T20:18:00.896Z,6.43
2023-03-23T20:20:28.851Z,4.53
2023-03-23T20:22:57.883Z,8.53
2023-03-23T20:25:25.901Z,9.27
2023-03-23T20:27:52.646Z,10.07
2023-03-23T20:30:20.141Z,6.10
2023-03-23T20:32:47.354Z,6.67
2023-03-23T20:35:16.909Z,6.67
2023-03-23T20:37:44.527Z,6.63
2023-03-23T20:40:14.719Z,6.17
2023-03-23T20:42:44.057Z,7.70
2023-03-23T20:45:16.094Z,6.23
2023-03-23T20:47:42.732Z,8.77
2023-03-23T20:50:10.593Z,4.20
2023-03-23T20:52:37.208Z,6.37
2023-03-23T20:55:04.607Z,7.60
2023-03-23T20:57:31.241Z,7.50
2023-03-23T20:59:58.296Z,9.00
2023-03-23T21:02:25.989Z,10.07
2023-03-23T21:04:53.047Z,11.10
2023-03-23T21:07:23.104Z,4.67
2023-03-23T21:09:50.038Z,7.90
2023-03-23T21:12:16.656Z,7.97
2023-03-23T21:14:44.864Z,8.60
2023-03-23T21:17:11.571Z,8.80
2023-03-23T21:19:38.374Z,8.03
2023-03-23T21:22:05.234Z,7.07
2023-03-23T21:24:32.095Z,8.40
2023-03-23T21:27:02.721Z,5.97
2023-03-23T21:29:29.402Z,7.77
2023-03-23T21:32:06.945Z,7.40
2023-03-23T21:34:35.254Z,7.93
2023-03-23T21:37:01.929Z,7.07
2023-03-23T21:39:28.965Z,7.00
2023-03-23T21:41:55.653Z,7.53
2023-03-23T21:44:22.563Z,6.57
2023-03-23T21:46:52.091Z,7.63
2023-03-23T21:49:18.945Z,7.87
2023-03-23T21:51:45.556Z,8.27
2023-03-23T21:54:15.276Z,7.33
2023-03-23T21:56:42.481Z,7.60
2023-03-23T21:59:09.086Z,9.07
2023-03-23T22:01:40.329Z,9.73
2023-03-23T22:04:07.671Z,7.60
2023-03-23T22:06:35.173Z,8.73
2023-03-23T22:09:05.152Z,9.33
2023-03-23T22:11:32.685Z,9.33
2023-03-23T22:13:59.910Z,11.20
2023-03-23T22:16:26.664Z,7.20
2023-03-23T22:18:55.245Z,9.17
2023-03-23T22:21:25.864Z,9.30
2023-03-23T22:23:54.380Z,9.33
2023-03-23T22:26:21.466Z,9.67
2023-03-23T22:28:49.478Z,9.60
2023-03-23T22:31:28.387Z,8.63
2023-03-23T22:33:56.657Z,10.27
2023-03-23T22:36:25.766Z,11.27
2023-03-23T22:38:52.560Z,9.17
2023-03-23T22:41:21.858Z,9.37
2023-03-23T22:43:49.109Z,8.13
2023-03-23T22:46:16.708Z,7.87
2023-03-23T22:48:44.474Z,13.00
2023-03-23T22:51:12.837Z,9.07
2023-03-23T22:53:39.568Z,10.53
2023-03-23T22:56:07.090Z,9.97
2023-03-23T22:58:34.397Z,8.97
2023-03-23T23:01:03.800Z,9.00
2023-03-23T23:03:31.124Z,8.47
2023-03-23T23:05:58.888Z,7.23
2023-03-23T23:08:27.443Z,8.13
2023-03-23T23:10:56.791Z,10.13
2023-03-23T23:13:24.687Z,7.47
2023-03-23T23:15:53.701Z,6.67
2023-03-23T23:18:21.074Z,5.27
2023-03-23T23:20:53.086Z,8.40
2023-03-23T23:23:19.715Z,9.37
2023-03-23T23:25:48.318Z,10.43
2023-03-23T23:28:14.925Z,9.77
2023-03-23T23:30:42.033Z,8.17
2023-03-23T23:33:09.303Z,6.70
2023-03-23T23:35:40.591Z,7.20
2023-03-23T23:38:09.601Z,7.17
2023-03-23T23:40:36.617Z,7.60
2023-03-23T23:43:03.780Z,6.20
2023-03-23T23:45:31.513Z,8.93
2023-03-23T23:47:58.558Z,5.80
2023-03-23T23:50:25.933Z,6.13
2023-03-23T23:52:53.327Z,5.63
2023-03-23T23:55:20.460Z,5.63
2023-03-23T23:57:48.542Z,5.17
